sensor_id;sensor_type;location;lat;lon;timestamp;temperature;humidity
20233;DHT22;37438;55.674;13.074;2022-11-09T00:01:03;12.90;99.90
20233;DHT22;37438;55.674;13.074;2022-11-09T00:04:08;12.80;99.90
20233;DHT22;37438;55.674;13.074;2022-11-09T00:07:13;12.80;99.90
20233;DHT22;37438;55.674;13.074;2022-11-09T00:10:18;12.80;99.90
20233;DHT22;37438;55.674;13.074;2022-11-09T00:13:22;12.70;99.90
20233;DHT22;37438;55.674;13.074;2022-11-09T00:16:26;12.70;99.90
20233;DHT22;37438;55.674;13.074;2022-11-09T00:19:30;12.70;99.90
20233;DHT22;37438;55.674;13.074;2022-11-09T00:22:35;12.60;99.90
20233;DHT22;37438;55.674;13.074;2022-11-09T00:25:39;12.60;99.90
20233;DHT22;37438;55.674;13.074;2022-11-09T00:28:44;12.50;99.90
20233;DHT22;37438;55.674;13.074;2022-11-09T00:31:49;12.50;99.90
20233;DHT22;37438;55.674;13.074;2022-11-09T00:34:53;12.50;99.90
20233;DHT22;37438;55.674;13.074;2022-11-09T00:37:58;12.50;99.90
20233;DHT22;37438;55.674;13.074;2022-11-09T00:41:03;12.50;99.90
20233;DHT22;37438;55.674;13.074;2022-11-09T00:44:08;12.50;99.90
20233;DHT22;37438;55.674;13.074;2022-11-09T00:47:12;12.50;99.90
20233;DHT22;37438;55.674;13.074;2022-11-09T00:50:16;12.40;99.90
20233;DHT22;37438;55.674;13.074;2022-11-09T00:53:22;12.40;99.90
20233;DHT22;37438;55.674;13.074;2022-11-09T00:56:26;12.40;99.90
20233;DHT22;37438;55.674;13.074;2022-11-09T00:59:30;12.40;99.90
20233;DHT22;37438;55.674;13.074;2022-11-09T01:02:35;12.40;99.90
20233;DHT22;37438;55.674;13.074;2022-11-09T01:05:39;12.40;99.90
20233;DHT22;37438;55.674;13.074;2022-11-09T01:08:44;12.30;99.90
20233;DHT22;37438;55.674;13.074;2022-11-09T01:11:50;12.20;99.90
20233;DHT22;37438;55.674;13.074;2022-11-09T01:14:58;12.20;99.90
20233;DHT22;37438;55.674;13.074;2022-11-09T01:18:02;12.30;99.90
20233;DHT22;37438;55.674;13.074;2022-11-09T01:21:09;12.20;99.90
20233;DHT22;37438;55.674;13.074;2022-11-09T01:24:14;12.20;99.90
20233;DHT22;37438;55.674;13.074;2022-11-09T01:27:19;12.20;99.90
20233;DHT22;37438;55.674;13.074;2022-11-09T01:30:23;12.20;99.90
20233;DHT22;37438;55.674;13.074;2022-11-09T01:33:28;12.20;99.90
20233;DHT22;37438;55.674;13.074;2022-11-09T01:36:32;12.20;99.90
20233;DHT22;37438;55.674;13.074;2022-11-09T01:39:37;12.20;99.90
20233;DHT22;37438;55.674;13.074;2022-11-09T01:42:41;12.20;99.90
20233;DHT22;37438;55.674;13.074;2022-11-09T01:46:19;12.10;99.90
20233;DHT22;37438;55.674;13.074;2022-11-09T01:49:36;12.10;99.90
20233;DHT22;37438;55.674;13.074;2022-11-09T01:52:42;12.10;99.90
20233;DHT22;37438;55.674;13.074;2022-11-09T01:55:51;12.20;99.90
20233;DHT22;37438;55.674;13.074;2022-11-09T01:59:03;12.20;99.90
20233;DHT22;37438;55.674;13.074;2022-11-09T02:02:09;12.20;99.90
20233;DHT22;37438;55.674;13.074;2022-11-09T02:05:20;12.30;99.90
20233;DHT22;37438;55.674;13.074;2022-11-09T02:08:27;12.30;99.90
20233;DHT22;37438;55.674;13.074;2022-11-09T02:11:32;12.20;99.90
20233;DHT22;37438;55.674;13.074;2022-11-09T02:14:38;12.20;99.90
20233;DHT22;37438;55.674;13.074;2022-11-09T02:17:43;12.20;99.90
20233;DHT22;37438;55.674;13.074;2022-11-09T02:20:49;12.20;99.90
20233;DHT22;37438;55.674;13.074;2022-11-09T02:23:54;12.10;99.90
20233;DHT22;37438;55.674;13.074;2022-11-09T02:27:00;12.10;99.90
20233;DHT22;37438;55.674;13.074;2022-11-09T02:30:06;12.10;99.90
20233;DHT22;37438;55.674;13.074;2022-11-09T02:33:11;12.10;99.90
20233;DHT22;37438;55.674;13.074;2022-11-09T02:36:16;12.10;99.90
20233;DHT22;37438;55.674;13.074;2022-11-09T02:39:23;12.00;99.90
20233;DHT22;37438;55.674;13.074;2022-11-09T02:42:29;12.00;99.90
20233;DHT22;37438;55.674;13.074;2022-11-09T02:45:34;12.00;99.90
20233;DHT22;37438;55.674;13.074;2022-11-09T02:48:39;12.10;99.90
20233;DHT22;37438;55.674;13.074;2022-11-09T02:51:44;12.10;99.90
20233;DHT22;37438;55.674;13.074;2022-11-09T02:54:48;12.20;99.90
20233;DHT22;37438;55.674;13.074;2022-11-09T02:57:53;12.20;99.90
20233;DHT22;37438;55.674;13.074;2022-11-09T03:00:58;12.10;99.90
20233;DHT22;37438;55.674;13.074;2022-11-09T03:04:02;12.10;99.90
20233;DHT22;37438;55.674;13.074;2022-11-09T03:07:08;12.10;99.90
20233;DHT22;37438;55.674;13.074;2022-11-09T03:10:14;12.00;99.90
20233;DHT22;37438;55.674;13.074;2022-11-09T03:13:19;12.00;99.90
20233;DHT22;37438;55.674;13.074;2022-11-09T03:16:24;12.00;99.90
20233;DHT22;37438;55.674;13.074;2022-11-09T03:19:28;12.00;99.90
20233;DHT22;37438;55.674;13.074;2022-11-09T03:22:33;12.10;99.90
20233;DHT22;37438;55.674;13.074;2022-11-09T03:25:38;12.10;99.90
20233;DHT22;37438;55.674;13.074;2022-11-09T03:28:43;12.20;99.90
20233;DHT22;37438;55.674;13.074;2022-11-09T03:31:47;12.10;99.90
20233;DHT22;37438;55.674;13.074;2022-11-09T03:34:51;12.10;99.90
20233;DHT22;37438;55.674;13.074;2022-11-09T03:37:56;12.20;99.90
20233;DHT22;37438;55.674;13.074;2022-11-09T03:41:02;12.20;99.90
20233;DHT22;37438;55.674;13.074;2022-11-09T03:44:08;12.30;99.90
20233;DHT22;37438;55.674;13.074;2022-11-09T03:47:13;12.40;99.90
20233;DHT22;37438;55.674;13.074;2022-11-09T03:50:17;12.50;99.90
20233;DHT22;37438;55.674;13.074;2022-11-09T03:53:22;12.50;99.90
20233;DHT22;37438;55.674;13.074;2022-11-09T03:56:26;12.50;99.90
20233;DHT22;37438;55.674;13.074;2022-11-09T03:59:31;12.60;99.90
20233;DHT22;37438;55.674;13.074;2022-11-09T04:02:35;12.50;99.90
20233;DHT22;37438;55.674;13.074;2022-11-09T04:05:40;12.60;99.90
20233;DHT22;37438;55.674;13.074;2022-11-09T04:08:44;12.60;99.90
20233;DHT22;37438;55.674;13.074;2022-11-09T04:11:55;12.60;99.90
20233;DHT22;37438;55.674;13.074;2022-11-09T04:15:00;12.60;99.90
20233;DHT22;37438;55.674;13.074;2022-11-09T04:18:04;12.50;99.90
20233;DHT22;37438;55.674;13.074;2022-11-09T04:21:08;12.60;99.90
20233;DHT22;37438;55.674;13.074;2022-11-09T04:24:13;12.60;99.90
20233;DHT22;37438;55.674;13.074;2022-11-09T04:27:18;12.50;99.90
20233;DHT22;37438;55.674;13.074;2022-11-09T04:30:23;12.60;99.90
20233;DHT22;37438;55.674;13.074;2022-11-09T04:33:28;12.60;99.90
20233;DHT22;37438;55.674;13.074;2022-11-09T04:36:32;12.60;99.90
20233;DHT22;37438;55.674;13.074;2022-11-09T04:39:37;12.60;99.90
20233;DHT22;37438;55.674;13.074;2022-11-09T04:42:41;12.50;99.90
20233;DHT22;37438;55.674;13.074;2022-11-09T04:45:45;12.50;99.90
20233;DHT22;37438;55.674;13.074;2022-11-09T04:48:50;12.50;99.90
20233;DHT22;37438;55.674;13.074;2022-11-09T04:51:54;12.50;99.90
20233;DHT22;37438;55.674;13.074;2022-11-09T04:54:59;12.40;99.90
20233;DHT22;37438;55.674;13.074;2022-11-09T04:58:03;12.40;99.90
20233;DHT22;37438;55.674;13.074;2022-11-09T05:01:12;12.40;99.90
20233;DHT22;37438;55.674;13.074;2022-11-09T05:04:17;12.40;99.90
20233;DHT22;37438;55.674;13.074;2022-11-09T05:07:21;12.40;99.90
20233;DHT22;37438;55.674;13.074;2022-11-09T05:10:26;12.40;99.90
20233;DHT22;37438;55.674;13.074;2022-11-09T05:13:31;12.40;99.90
20233;DHT22;37438;55.674;13.074;2022-11-09T05:16:35;12.40;99.90
20233;DHT22;37438;55.674;13.074;2022-11-09T05:19:39;12.40;99.90
20233;DHT22;37438;55.674;13.074;2022-11-09T05:22:44;12.40;99.90
20233;DHT22;37438;55.674;13.074;2022-11-09T05:26:08;12.30;99.90
20233;DHT22;37438;55.674;13.074;2022-11-09T05:29:12;12.30;99.90
20233;DHT22;37438;55.674;13.074;2022-11-09T05:32:16;12.40;99.90
20233;DHT22;37438;55.674;13.074;2022-11-09T05:35:21;12.40;99.90
20233;DHT22;37438;55.674;13.074;2022-11-09T05:38:26;12.40;99.90
20233;DHT22;37438;55.674;13.074;2022-11-09T05:41:30;12.40;99.90
20233;DHT22;37438;55.674;13.074;2022-11-09T05:44:35;12.30;99.90
20233;DHT22;37438;55.674;13.074;2022-11-09T05:47:41;12.30;99.90
20233;DHT22;37438;55.674;13.074;2022-11-09T05:50:46;12.30;99.90
20233;DHT22;37438;55.674;13.074;2022-11-09T05:53:58;12.30;99.90
20233;DHT22;37438;55.674;13.074;2022-11-09T05:57:02;12.20;99.90
20233;DHT22;37438;55.674;13.074;2022-11-09T06:00:07;12.30;99.90
20233;DHT22;37438;55.674;13.074;2022-11-09T06:03:16;12.30;99.90
20233;DHT22;37438;55.674;13.074;2022-11-09T06:06:21;12.30;99.90
20233;DHT22;37438;55.674;13.074;2022-11-09T06:09:25;12.30;99.90
20233;DHT22;37438;55.674;13.074;2022-11-09T06:12:30;12.20;99.90
20233;DHT22;37438;55.674;13.074;2022-11-09T06:15:34;12.30;99.90
20233;DHT22;37438;55.674;13.074;2022-11-09T06:18:39;12.20;99.90
20233;DHT22;37438;55.674;13.074;2022-11-09T06:21:43;12.20;99.90
20233;DHT22;37438;55.674;13.074;2022-11-09T06:24:48;12.20;99.90
20233;DHT22;37438;55.674;13.074;2022-11-09T06:27:53;12.20;99.90
20233;DHT22;37438;55.674;13.074;2022-11-09T06:30:59;12.20;99.90
20233;DHT22;37438;55.674;13.074;2022-11-09T06:34:04;12.20;99.90
20233;DHT22;37438;55.674;13.074;2022-11-09T06:37:08;12.20;99.90
20233;DHT22;37438;55.674;13.074;2022-11-09T06:40:13;12.20;99.90
20233;DHT22;37438;55.674;13.074;2022-11-09T06:43:17;12.10;99.90
20233;DHT22;37438;55.674;13.074;2022-11-09T06:46:22;12.20;99.90
20233;DHT22;37438;55.674;13.074;2022-11-09T06:49:27;12.20;99.90
20233;DHT22;37438;55.674;13.074;2022-11-09T06:52:31;12.20;99.90
20233;DHT22;37438;55.674;13.074;2022-11-09T06:55:36;12.10;99.90
20233;DHT22;37438;55.674;13.074;2022-11-09T06:58:40;12.10;99.90
20233;DHT22;37438;55.674;13.074;2022-11-09T07:01:45;12.20;99.90
20233;DHT22;37438;55.674;13.074;2022-11-09T07:04:52;12.20;99.90
20233;DHT22;37438;55.674;13.074;2022-11-09T07:07:57;12.20;99.90
20233;DHT22;37438;55.674;13.074;2022-11-09T07:11:12;12.20;99.90
20233;DHT22;37438;55.674;13.074;2022-11-09T07:14:17;12.20;99.90
20233;DHT22;37438;55.674;13.074;2022-11-09T07:17:22;12.20;99.90
20233;DHT22;37438;55.674;13.074;2022-11-09T07:20:26;12.20;99.90
20233;DHT22;37438;55.674;13.074;2022-11-09T07:23:31;12.30;99.90
20233;DHT22;37438;55.674;13.074;2022-11-09T07:26:36;12.30;99.90
20233;DHT22;37438;55.674;13.074;2022-11-09T07:29:40;12.30;99.90
20233;DHT22;37438;55.674;13.074;2022-11-09T07:32:45;12.40;99.90
20233;DHT22;37438;55.674;13.074;2022-11-09T07:36:09;12.40;99.90
20233;DHT22;37438;55.674;13.074;2022-11-09T07:39:14;12.50;99.90
20233;DHT22;37438;55.674;13.074;2022-11-09T07:42:18;12.50;99.90
20233;DHT22;37438;55.674;13.074;2022-11-09T07:45:23;12.60;99.90
20233;DHT22;37438;55.674;13.074;2022-11-09T07:48:27;12.70;99.90
20233;DHT22;37438;55.674;13.074;2022-11-09T07:51:33;12.70;99.90
20233;DHT22;37438;55.674;13.074;2022-11-09T07:54:38;12.80;99.90
20233;DHT22;37438;55.674;13.074;2022-11-09T07:57:43;12.90;99.90
20233;DHT22;37438;55.674;13.074;2022-11-09T08:00:47;13.00;99.90
20233;DHT22;37438;55.674;13.074;2022-11-09T08:03:52;13.10;99.90
20233;DHT22;37438;55.674;13.074;2022-11-09T08:06:56;13.10;99.90
20233;DHT22;37438;55.674;13.074;2022-11-09T08:10:01;13.10;99.90
20233;DHT22;37438;55.674;13.074;2022-11-09T08:13:11;13.30;99.90
20233;DHT22;37438;55.674;13.074;2022-11-09T08:16:17;13.20;99.90
20233;DHT22;37438;55.674;13.074;2022-11-09T08:19:21;13.50;99.90
20233;DHT22;37438;55.674;13.074;2022-11-09T08:22:25;13.80;99.90
20233;DHT22;37438;55.674;13.074;2022-11-09T08:25:33;13.80;99.90
20233;DHT22;37438;55.674;13.074;2022-11-09T08:28:38;13.80;99.90
20233;DHT22;37438;55.674;13.074;2022-11-09T08:31:42;13.80;99.90
20233;DHT22;37438;55.674;13.074;2022-11-09T08:34:47;13.70;99.90
20233;DHT22;37438;55.674;13.074;2022-11-09T08:37:51;13.70;99.90
20233;DHT22;37438;55.674;13.074;2022-11-09T08:40:59;13.70;99.90
20233;DHT22;37438;55.674;13.074;2022-11-09T08:44:03;13.60;99.90
20233;DHT22;37438;55.674;13.074;2022-11-09T08:47:08;13.60;99.90
20233;DHT22;37438;55.674;13.074;2022-11-09T08:50:13;13.60;99.90
20233;DHT22;37438;55.674;13.074;2022-11-09T08:53:18;13.60;99.90
20233;DHT22;37438;55.674;13.074;2022-11-09T08:56:22;13.60;99.90
20233;DHT22;37438;55.674;13.074;2022-11-09T08:59:27;13.60;99.90
20233;DHT22;37438;55.674;13.074;2022-11-09T09:02:31;13.60;99.90
20233;DHT22;37438;55.674;13.074;2022-11-09T09:05:36;13.50;99.90
20233;DHT22;37438;55.674;13.074;2022-11-09T09:08:40;13.60;99.90
20233;DHT22;37438;55.674;13.074;2022-11-09T09:11:44;13.50;99.90
20233;DHT22;37438;55.674;13.074;2022-11-09T09:14:49;13.60;99.90
20233;DHT22;37438;55.674;13.074;2022-11-09T09:17:53;13.60;99.90
20233;DHT22;37438;55.674;13.074;2022-11-09T09:20:57;13.70;99.90
20233;DHT22;37438;55.674;13.074;2022-11-09T09:24:02;13.60;99.90
20233;DHT22;37438;55.674;13.074;2022-11-09T09:27:06;13.60;99.90
20233;DHT22;37438;55.674;13.074;2022-11-09T09:30:11;13.60;99.90
20233;DHT22;37438;55.674;13.074;2022-11-09T09:33:15;13.60;99.90
20233;DHT22;37438;55.674;13.074;2022-11-09T09:36:22;13.60;99.90
20233;DHT22;37438;55.674;13.074;2022-11-09T09:39:27;13.70;99.90
20233;DHT22;37438;55.674;13.074;2022-11-09T09:42:41;13.70;99.90
20233;DHT22;37438;55.674;13.074;2022-11-09T09:45:47;13.70;99.90
20233;DHT22;37438;55.674;13.074;2022-11-09T09:49:19;13.60;99.90
20233;DHT22;37438;55.674;13.074;2022-11-09T09:52:40;14.00;99.90
20233;DHT22;37438;55.674;13.074;2022-11-09T09:56:24;13.80;99.90
20233;DHT22;37438;55.674;13.074;2022-11-09T10:02:40;13.70;99.90
20233;DHT22;37438;55.674;13.074;2022-11-09T10:09:23;13.60;99.90
20233;DHT22;37438;55.674;13.074;2022-11-09T10:16:27;13.80;99.90
20233;DHT22;37438;55.674;13.074;2022-11-09T10:23:13;13.80;99.90
20233;DHT22;37438;55.674;13.074;2022-11-09T10:26:38;13.80;99.90
20233;DHT22;37438;55.674;13.074;2022-11-09T10:29:46;13.80;99.90
20233;DHT22;37438;55.674;13.074;2022-11-09T10:32:58;13.80;99.90
20233;DHT22;37438;55.674;13.074;2022-11-09T10:36:41;13.70;99.90
20233;DHT22;37438;55.674;13.074;2022-11-09T10:39:58;13.80;99.90
20233;DHT22;37438;55.674;13.074;2022-11-09T10:43:23;13.70;99.90
20233;DHT22;37438;55.674;13.074;2022-11-09T10:47:06;13.70;99.90
20233;DHT22;37438;55.674;13.074;2022-11-09T10:50:31;13.70;99.90
20233;DHT22;37438;55.674;13.074;2022-11-09T10:54:23;13.70;99.90
20233;DHT22;37438;55.674;13.074;2022-11-09T10:58:01;13.70;99.90
20233;DHT22;37438;55.674;13.074;2022-11-09T11:01:35;13.70;99.90
20233;DHT22;37438;55.674;13.074;2022-11-09T11:08:29;13.80;99.90
20233;DHT22;37438;55.674;13.074;2022-11-09T11:12:12;13.90;99.90
20233;DHT22;37438;55.674;13.074;2022-11-09T11:15:39;13.90;99.90
20233;DHT22;37438;55.674;13.074;2022-11-09T11:19:03;13.90;99.90
20233;DHT22;37438;55.674;13.074;2022-11-09T11:22:26;14.10;99.90
20233;DHT22;37438;55.674;13.074;2022-11-09T11:32:43;13.80;99.90
20233;DHT22;37438;55.674;13.074;2022-11-09T11:36:44;13.80;99.90
20233;DHT22;37438;55.674;13.074;2022-11-09T11:40:29;15.10;99.90
20233;DHT22;37438;55.674;13.074;2022-11-09T11:44:01;15.80;99.90
20233;DHT22;37438;55.674;13.074;2022-11-09T11:51:12;16.40;99.90
20233;DHT22;37438;55.674;13.074;2022-11-09T11:54:48;16.00;99.90
20233;DHT22;37438;55.674;13.074;2022-11-09T12:17:51;14.20;99.90
20233;DHT22;37438;55.674;13.074;2022-11-09T12:25:26;14.30;99.90
20233;DHT22;37438;55.674;13.074;2022-11-09T12:32:52;14.10;99.90
20233;DHT22;37438;55.674;13.074;2022-11-09T12:36:21;14.10;99.90
20233;DHT22;37438;55.674;13.074;2022-11-09T12:39:48;15.10;99.90
20233;DHT22;37438;55.674;13.074;2022-11-09T12:43:32;16.20;99.90
20233;DHT22;37438;55.674;13.074;2022-11-09T12:47:07;15.90;99.90
20233;DHT22;37438;55.674;13.074;2022-11-09T12:50:32;16.30;99.90
20233;DHT22;37438;55.674;13.074;2022-11-09T12:53:57;16.60;99.90
20233;DHT22;37438;55.674;13.074;2022-11-09T12:57:26;15.30;99.90
20233;DHT22;37438;55.674;13.074;2022-11-09T13:00:59;16.10;99.90
20233;DHT22;37438;55.674;13.074;2022-11-09T13:04:24;16.50;99.90
20233;DHT22;37438;55.674;13.074;2022-11-09T13:07:48;16.60;99.90
20233;DHT22;37438;55.674;13.074;2022-11-09T13:15:29;16.60;99.90
20233;DHT22;37438;55.674;13.074;2022-11-09T13:18:54;15.50;99.90
20233;DHT22;37438;55.674;13.074;2022-11-09T13:25:48;14.80;99.90
20233;DHT22;37438;55.674;13.074;2022-11-09T13:29:26;14.60;99.90
20233;DHT22;37438;55.674;13.074;2022-11-09T13:36:28;15.10;99.90
20233;DHT22;37438;55.674;13.074;2022-11-09T13:39:51;14.80;99.90
20233;DHT22;37438;55.674;13.074;2022-11-09T13:43:22;14.50;99.90
20233;DHT22;37438;55.674;13.074;2022-11-09T13:46:47;14.50;99.90
20233;DHT22;37438;55.674;13.074;2022-11-09T13:50:29;14.10;99.90
20233;DHT22;37438;55.674;13.074;2022-11-09T13:57:22;13.70;99.90
20233;DHT22;37438;55.674;13.074;2022-11-09T14:00:46;13.70;99.90
20233;DHT22;37438;55.674;13.074;2022-11-09T14:04:24;13.70;99.90
20233;DHT22;37438;55.674;13.074;2022-11-09T14:07:48;13.60;99.90
20233;DHT22;37438;55.674;13.074;2022-11-09T14:15:42;13.50;99.90
20233;DHT22;37438;55.674;13.074;2022-11-09T14:22:30;13.50;99.90
20233;DHT22;37438;55.674;13.074;2022-11-09T14:25:55;13.50;99.90
20233;DHT22;37438;55.674;13.074;2022-11-09T14:29:23;13.50;99.90
20233;DHT22;37438;55.674;13.074;2022-11-09T14:32:49;13.50;99.90
20233;DHT22;37438;55.674;13.074;2022-11-09T14:36:12;13.50;99.90
20233;DHT22;37438;55.674;13.074;2022-11-09T14:39:36;13.60;99.90
20233;DHT22;37438;55.674;13.074;2022-11-09T14:43:20;13.50;99.90
20233;DHT22;37438;55.674;13.074;2022-11-09T14:46:45;13.30;99.90
20233;DHT22;37438;55.674;13.074;2022-11-09T14:50:17;13.30;99.90
20233;DHT22;37438;55.674;13.074;2022-11-09T14:53:42;13.20;99.90
20233;DHT22;37438;55.674;13.074;2022-11-09T14:57:10;13.20;99.90
20233;DHT22;37438;55.674;13.074;2022-11-09T15:00:35;13.30;99.90
20233;DHT22;37438;55.674;13.074;2022-11-09T15:04:11;13.30;99.90
20233;DHT22;37438;55.674;13.074;2022-11-09T15:07:35;13.20;99.90
20233;DHT22;37438;55.674;13.074;2022-11-09T15:10:58;13.10;99.90
20233;DHT22;37438;55.674;13.074;2022-11-09T15:14:31;13.10;99.90
20233;DHT22;37438;55.674;13.074;2022-11-09T15:17:54;13.00;99.90
20233;DHT22;37438;55.674;13.074;2022-11-09T15:24:47;13.00;99.90
20233;DHT22;37438;55.674;13.074;2022-11-09T15:31:34;12.90;99.90
20233;DHT22;37438;55.674;13.074;2022-11-09T15:34:58;12.80;99.90
20233;DHT22;37438;55.674;13.074;2022-11-09T15:38:30;12.80;99.90
20233;DHT22;37438;55.674;13.074;2022-11-09T15:41:54;12.70;99.90
20233;DHT22;37438;55.674;13.074;2022-11-09T15:45:19;12.70;99.90
20233;DHT22;37438;55.674;13.074;2022-11-09T15:48:43;12.60;99.90
20233;DHT22;37438;55.674;13.074;2022-11-09T15:52:10;12.60;99.90
20233;DHT22;37438;55.674;13.074;2022-11-09T15:55:33;12.50;99.90
20233;DHT22;37438;55.674;13.074;2022-11-09T15:58:56;12.50;99.90
20233;DHT22;37438;55.674;13.074;2022-11-09T16:02:19;12.50;99.90
20233;DHT22;37438;55.674;13.074;2022-11-09T16:05:43;12.50;99.90
20233;DHT22;37438;55.674;13.074;2022-11-09T16:09:07;12.50;99.90
20233;DHT22;37438;55.674;13.074;2022-11-09T16:12:31;12.50;99.90
20233;DHT22;37438;55.674;13.074;2022-11-09T16:16:04;12.50;99.90
20233;DHT22;37438;55.674;13.074;2022-11-09T16:19:27;12.60;99.90
20233;DHT22;37438;55.674;13.074;2022-11-09T16:22:51;12.50;99.90
20233;DHT22;37438;55.674;13.074;2022-11-09T16:26:16;12.60;99.90
20233;DHT22;37438;55.674;13.074;2022-11-09T16:29:39;12.60;99.90
20233;DHT22;37438;55.674;13.074;2022-11-09T16:33:02;12.60;99.90
20233;DHT22;37438;55.674;13.074;2022-11-09T16:36:27;12.60;99.90
20233;DHT22;37438;55.674;13.074;2022-11-09T16:39:50;12.60;99.90
20233;DHT22;37438;55.674;13.074;2022-11-09T16:43:14;12.60;99.90
20233;DHT22;37438;55.674;13.074;2022-11-09T16:46:39;12.50;99.90
20233;DHT22;37438;55.674;13.074;2022-11-09T16:50:04;12.40;99.90
20233;DHT22;37438;55.674;13.074;2022-11-09T16:53:28;12.40;99.90
20233;DHT22;37438;55.674;13.074;2022-11-09T16:56:52;12.40;99.90
20233;DHT22;37438;55.674;13.074;2022-11-09T17:00:17;12.30;99.90
20233;DHT22;37438;55.674;13.074;2022-11-09T17:03:44;12.30;99.90
20233;DHT22;37438;55.674;13.074;2022-11-09T17:07:09;12.30;99.90
20233;DHT22;37438;55.674;13.074;2022-11-09T17:10:33;12.20;99.90
20233;DHT22;37438;55.674;13.074;2022-11-09T17:13:58;12.20;99.90
20233;DHT22;37438;55.674;13.074;2022-11-09T17:17:21;12.20;99.90
20233;DHT22;37438;55.674;13.074;2022-11-09T17:20:49;12.10;99.90
20233;DHT22;37438;55.674;13.074;2022-11-09T17:24:12;12.10;99.90
20233;DHT22;37438;55.674;13.074;2022-11-09T17:27:37;12.10;99.90
20233;DHT22;37438;55.674;13.074;2022-11-09T17:31:07;12.10;99.90
20233;DHT22;37438;55.674;13.074;2022-11-09T17:34:30;12.10;99.90
20233;DHT22;37438;55.674;13.074;2022-11-09T17:37:54;12.10;99.90
20233;DHT22;37438;55.674;13.074;2022-11-09T17:41:19;12.10;99.90
20233;DHT22;37438;55.674;13.074;2022-11-09T17:44:42;12.10;99.90
20233;DHT22;37438;55.674;13.074;2022-11-09T17:48:06;12.10;99.90
20233;DHT22;37438;55.674;13.074;2022-11-09T17:51:29;12.10;99.90
20233;DHT22;37438;55.674;13.074;2022-11-09T17:54:53;12.20;99.90
20233;DHT22;37438;55.674;13.074;2022-11-09T17:58:17;12.10;99.90
20233;DHT22;37438;55.674;13.074;2022-11-09T18:01:41;12.20;99.90
20233;DHT22;37438;55.674;13.074;2022-11-09T18:05:06;12.20;99.90
20233;DHT22;37438;55.674;13.074;2022-11-09T18:08:29;12.20;99.90
20233;DHT22;37438;55.674;13.074;2022-11-09T18:11:52;12.30;99.90
20233;DHT22;37438;55.674;13.074;2022-11-09T18:15:16;12.30;99.90
20233;DHT22;37438;55.674;13.074;2022-11-09T18:18:39;12.30;99.90
20233;DHT22;37438;55.674;13.074;2022-11-09T18:22:03;12.40;99.90
20233;DHT22;37438;55.674;13.074;2022-11-09T18:25:31;12.40;99.90
20233;DHT22;37438;55.674;13.074;2022-11-09T18:28:55;11.10;99.90
20233;DHT22;37438;55.674;13.074;2022-11-09T18:32:18;10.20;99.90
20233;DHT22;37438;55.674;13.074;2022-11-09T18:35:42;10.20;99.90
20233;DHT22;37438;55.674;13.074;2022-11-09T18:39:05;10.20;99.90
20233;DHT22;37438;55.674;13.074;2022-11-09T18:42:28;10.10;99.90
20233;DHT22;37438;55.674;13.074;2022-11-09T18:45:56;10.20;99.90
20233;DHT22;37438;55.674;13.074;2022-11-09T18:49:19;10.30;99.90
20233;DHT22;37438;55.674;13.074;2022-11-09T18:52:43;10.50;99.90
20233;DHT22;37438;55.674;13.074;2022-11-09T18:56:11;10.60;99.90
20233;DHT22;37438;55.674;13.074;2022-11-09T18:59:40;10.60;99.90
20233;DHT22;37438;55.674;13.074;2022-11-09T19:03:04;10.60;99.90
20233;DHT22;37438;55.674;13.074;2022-11-09T19:06:28;10.70;99.90
20233;DHT22;37438;55.674;13.074;2022-11-09T19:09:51;10.70;99.90
20233;DHT22;37438;55.674;13.074;2022-11-09T19:13:18;10.70;99.90
20233;DHT22;37438;55.674;13.074;2022-11-09T19:16:42;10.70;99.90
20233;DHT22;37438;55.674;13.074;2022-11-09T19:20:06;10.70;99.90
20233;DHT22;37438;55.674;13.074;2022-11-09T19:23:29;10.70;99.90
20233;DHT22;37438;55.674;13.074;2022-11-09T19:26:56;10.70;99.90
20233;DHT22;37438;55.674;13.074;2022-11-09T19:30:19;10.70;99.90
20233;DHT22;37438;55.674;13.074;2022-11-09T19:33:47;10.80;99.90
20233;DHT22;37438;55.674;13.074;2022-11-09T19:37:10;10.80;99.90
20233;DHT22;37438;55.674;13.074;2022-11-09T19:40:34;10.80;99.90
20233;DHT22;37438;55.674;13.074;2022-11-09T19:44:02;10.90;99.90
20233;DHT22;37438;55.674;13.074;2022-11-09T19:47:25;10.80;99.90
20233;DHT22;37438;55.674;13.074;2022-11-09T19:50:50;10.80;99.90
20233;DHT22;37438;55.674;13.074;2022-11-09T19:54:13;10.70;99.90
20233;DHT22;37438;55.674;13.074;2022-11-09T19:57:37;10.70;99.90
20233;DHT22;37438;55.674;13.074;2022-11-09T20:04:24;10.70;99.90
20233;DHT22;37438;55.674;13.074;2022-11-09T20:07:48;10.80;99.90
20233;DHT22;37438;55.674;13.074;2022-11-09T20:11:14;10.70;99.90
20233;DHT22;37438;55.674;13.074;2022-11-09T20:14:57;10.70;99.90
20233;DHT22;37438;55.674;13.074;2022-11-09T20:18:21;10.70;99.90
20233;DHT22;37438;55.674;13.074;2022-11-09T20:21:46;10.70;99.90
20233;DHT22;37438;55.674;13.074;2022-11-09T20:25:11;10.70;99.90
20233;DHT22;37438;55.674;13.074;2022-11-09T20:28:34;10.70;99.90
20233;DHT22;37438;55.674;13.074;2022-11-09T20:31:57;10.70;99.90
20233;DHT22;37438;55.674;13.074;2022-11-09T20:35:21;10.80;99.90
20233;DHT22;37438;55.674;13.074;2022-11-09T20:38:45;10.80;99.90
20233;DHT22;37438;55.674;13.074;2022-11-09T20:42:12;10.90;99.90
20233;DHT22;37438;55.674;13.074;2022-11-09T20:45:35;10.90;99.90
20233;DHT22;37438;55.674;13.074;2022-11-09T20:48:59;10.90;99.90
20233;DHT22;37438;55.674;13.074;2022-11-09T20:52:23;10.90;99.90
20233;DHT22;37438;55.674;13.074;2022-11-09T20:55:46;11.10;99.90
20233;DHT22;37438;55.674;13.074;2022-11-09T20:59:14;11.10;99.90
20233;DHT22;37438;55.674;13.074;2022-11-09T21:02:37;11.30;99.90
20233;DHT22;37438;55.674;13.074;2022-11-09T21:06:03;11.40;99.90
20233;DHT22;37438;55.674;13.074;2022-11-09T21:09:26;11.40;99.90
20233;DHT22;37438;55.674;13.074;2022-11-09T21:12:54;11.50;99.90
20233;DHT22;37438;55.674;13.074;2022-11-09T21:16:18;11.60;99.90
20233;DHT22;37438;55.674;13.074;2022-11-09T21:19:41;11.70;99.90
20233;DHT22;37438;55.674;13.074;2022-11-09T21:23:05;11.80;99.90
20233;DHT22;37438;55.674;13.074;2022-11-09T21:26:34;11.80;99.90
20233;DHT22;37438;55.674;13.074;2022-11-09T21:30:17;11.80;99.90
20233;DHT22;37438;55.674;13.074;2022-11-09T21:33:41;11.70;99.90
20233;DHT22;37438;55.674;13.074;2022-11-09T21:37:05;11.60;99.90
20233;DHT22;37438;55.674;13.074;2022-11-09T21:40:28;11.50;99.90
20233;DHT22;37438;55.674;13.074;2022-11-09T21:43:55;11.50;99.90